Terminal Aerodrome Forecast
Issued by NWS Anchorage, AK

Home | Current Version | Previous Version | Text Only | Print | Product List | Glossary On
Versions: 1 2 3 4 5 6 7 8 9 10 11 12 13 14 15 16 17 18 19 20 21 22 23 24 25 26 27 28 29 30 31 32 33 34 35 36 37 38 39 40 41 42 43
000
FTAK31 PANC 260918 AAA
TAFANC
TAF AMD
PANC 260918Z 2609/2712 03005KT P6SM VCSH FEW003 SCT025 BKN040
      TEMPO 2609/2612 -SHSN SCT015 BKN025
     FM261700 02004KT P6SM SCT040 BKN080
     FM262200 34005KT P6SM FEW100=

USA.gov is the U.S. government's official web portal to all federal, state and local government web resources and services.